Terminal Aerodrome Forecast
Issued by NWS Raleigh/Durham, NC

Home | Current Version | Previous Version | Text Only | Print | Product List | Glossary On
Versions: 1 2 3 4 5 6 7 8 9 10 11 12 13 14 15 16 17 18 19
000
FTUS42 KRAH 272332
TAFGSO
TAF
KGSO 272332Z 2800/2824 16005KT P6SM BKN120 OVC250
     FM280500 16003KT P6SM OVC040
     FM280800 17004KT P6SM OVC009
     FM281300 20007KT P6SM BKN020 BKN090
     FM281500 21010G16KT P6SM BKN030 BKN120
     FM281900 21011G18KT P6SM BKN040=

USA.gov is the U.S. government's official web portal to all federal, state and local government web resources and services.